createdAt,value
2018-05-26T00:00:00.265Z,0.43
2018-05-26T00:02:27.828Z,0.30
2018-05-26T00:04:55.469Z,0.40
2018-05-26T00:07:23.713Z,0.47
2018-05-26T00:09:51.426Z,0.30
2018-05-26T00:12:19.083Z,0.50
2018-05-26T00:14:46.951Z,0.47
2018-05-26T00:17:15.615Z,0.40
2018-05-26T00:19:43.245Z,0.40
2018-05-26T00:22:10.970Z,0.50
2018-05-26T00:24:38.614Z,0.40
2018-05-26T00:27:06.283Z,0.40
2018-05-26T00:29:34.439Z,0.87
2018-05-26T00:32:02.016Z,0.40
2018-05-26T00:34:29.642Z,0.40
2018-05-26T00:36:57.333Z,0.40
2018-05-26T00:39:24.987Z,0.40
2018-05-26T00:41:52.620Z,0.30
2018-05-26T00:44:20.756Z,0.73
2018-05-26T00:46:48.356Z,0.77
2018-05-26T00:49:16.037Z,0.40
2018-05-26T00:51:44.176Z,0.40
2018-05-26T00:54:11.778Z,0.40
2018-05-26T00:56:39.380Z,0.40
2018-05-26T00:59:07.231Z,0.40
2018-05-26T01:01:34.894Z,0.33
2018-05-26T01:04:02.575Z,0.40
2018-05-26T01:06:30.289Z,0.40
2018-05-26T01:08:57.902Z,0.40
2018-05-26T01:11:25.574Z,0.40
2018-05-26T01:13:53.261Z,0.40
2018-05-26T01:16:20.857Z,0.40
2018-05-26T01:18:48.583Z,0.43
2018-05-26T01:21:16.461Z,0.30
2018-05-26T01:23:44.057Z,0.40
2018-05-26T01:26:11.734Z,0.40
2018-05-26T01:28:39.568Z,1.50
2018-05-26T01:31:07.265Z,0.40
2018-05-26T01:33:34.887Z,0.40
2018-05-26T01:36:02.736Z,0.43
2018-05-26T01:38:30.392Z,0.40
2018-05-26T01:40:58.068Z,0.30
2018-05-26T01:43:25.789Z,0.40
2018-05-26T01:45:53.410Z,0.30
2018-05-26T01:48:21.036Z,0.50
2018-05-26T01:50:48.916Z,0.40
2018-05-26T01:53:16.576Z,0.40
2018-05-26T01:55:44.240Z,0.73
2018-05-26T01:58:12.103Z,3.23
2018-05-26T02:00:39.733Z,2.20
2018-05-26T02:03:07.433Z,1.17
2018-05-26T02:05:35.180Z,0.53
2018-05-26T02:08:02.752Z,0.40
2018-05-26T02:10:30.395Z,0.40
2018-05-26T02:12:58.230Z,0.40
2018-05-26T02:15:25.919Z,0.37
2018-05-26T02:17:53.582Z,0.40
2018-05-26T02:20:21.285Z,0.70
2018-05-26T02:22:48.903Z,0.40
2018-05-26T02:25:16.534Z,0.50
2018-05-26T02:27:44.263Z,0.40
2018-05-26T02:30:11.901Z,0.40
2018-05-26T02:32:39.552Z,0.97
2018-05-26T02:35:07.247Z,1.07
2018-05-26T02:37:34.872Z,0.40
2018-05-26T02:40:02.499Z,0.40
2018-05-26T02:42:30.389Z,0.40
2018-05-26T02:44:58.026Z,0.40
2018-05-26T02:47:25.684Z,0.30
2018-05-26T02:49:53.421Z,0.30
2018-05-26T02:52:21.034Z,0.77
2018-05-26T02:54:48.648Z,0.40
2018-05-26T02:57:16.863Z,0.40
2018-05-26T02:59:44.457Z,0.30
2018-05-26T03:02:14.104Z,0.70
2018-05-26T03:04:47.814Z,0.63
2018-05-26T03:07:20.925Z,0.30
2018-05-26T03:09:54.322Z,0.83
2018-05-26T03:12:27.448Z,0.30
2018-05-26T03:14:55.040Z,0.40
2018-05-26T03:20:31.252Z,0.80
2018-05-26T03:22:58.881Z,0.40
2018-05-26T03:25:26.517Z,0.50
2018-05-26T03:27:54.349Z,0.40
2018-05-26T03:30:22.020Z,0.30
2018-05-26T03:32:49.707Z,1.43
2018-05-26T03:35:17.559Z,0.30
2018-05-26T03:37:45.951Z,0.40
2018-05-26T03:40:13.589Z,0.40
2018-05-26T03:42:41.195Z,0.30
2018-05-26T03:45:09.344Z,0.30
2018-05-26T03:47:36.933Z,0.80
2018-05-26T03:50:04.578Z,0.47
2018-05-26T03:52:32.330Z,0.50
2018-05-26T03:58:20.488Z,0.43
2018-05-26T04:00:48.065Z,0.47
2018-05-26T04:03:15.665Z,4.57
2018-05-26T04:05:43.518Z,8.38
2018-05-26T04:08:11.221Z,8.30
2018-05-26T04:10:38.850Z,7.00
2018-05-26T04:13:09.689Z,8.20
2018-05-26T04:15:37.711Z,8.55
2018-05-26T04:18:05.383Z,8.32
2018-05-26T04:20:33.046Z,7.43
2018-05-26T04:23:00.677Z,7.10
2018-05-26T04:25:28.316Z,6.47
2018-05-26T04:27:56.001Z,7.03
2018-05-26T04:30:23.665Z,7.85
2018-05-26T04:32:51.268Z,6.70
2018-05-26T04:35:19.156Z,6.17
2018-05-26T04:37:46.787Z,6.33
2018-05-26T04:40:14.455Z,6.73
2018-05-26T04:42:42.280Z,7.00
2018-05-26T04:45:09.965Z,6.80
2018-05-26T04:47:37.629Z,7.60
2018-05-26T04:50:05.346Z,6.97
2018-05-26T04:52:32.964Z,7.05
2018-05-26T04:55:00.611Z,6.50
2018-05-26T04:57:28.734Z,7.53
2018-05-26T04:59:56.328Z,7.12
2018-05-26T05:02:23.986Z,6.90
2018-05-26T05:04:51.874Z,6.30
2018-05-26T05:07:19.520Z,6.50
2018-05-26T05:09:47.171Z,7.05
2018-05-26T05:12:15.010Z,6.03
2018-05-26T05:14:42.691Z,6.53
2018-05-26T05:17:11.472Z,6.45
2018-05-26T05:19:39.089Z,7.15
2018-05-26T05:22:06.722Z,6.40
2018-05-26T05:24:34.415Z,5.72
2018-05-26T05:27:02.257Z,5.50
2018-05-26T05:29:31.074Z,5.57
2018-05-26T05:31:58.809Z,5.90
2018-05-26T05:34:26.889Z,5.90
2018-05-26T05:36:54.487Z,5.62
2018-05-26T05:39:22.211Z,6.50
2018-05-26T05:41:50.015Z,5.30
2018-05-26T05:44:17.680Z,5.30
2018-05-26T05:46:45.373Z,5.47
2018-05-26T05:49:13.032Z,4.60
2018-05-26T05:51:40.652Z,5.15
2018-05-26T05:54:08.306Z,5.30
2018-05-26T05:56:36.028Z,5.20
2018-05-26T05:59:03.633Z,5.22
2018-05-26T06:01:31.302Z,4.30
2018-05-26T06:03:59.467Z,4.60
2018-05-26T06:06:27.035Z,4.87
2018-05-26T06:08:54.904Z,4.43
2018-05-26T06:11:23.095Z,4.25
2018-05-26T06:13:50.666Z,4.82
2018-05-26T06:16:18.303Z,4.93
2018-05-26T06:18:45.975Z,5.45
2018-05-26T06:21:13.805Z,5.75
2018-05-26T06:23:41.460Z,5.95
2018-05-26T06:26:09.176Z,5.47
2018-05-26T06:28:36.758Z,5.85
2018-05-26T06:31:04.421Z,5.57
2018-05-26T06:33:32.621Z,5.45
2018-05-26T06:36:00.282Z,5.80
2018-05-26T06:38:27.844Z,4.82
2018-05-26T06:40:55.606Z,4.87
2018-05-26T06:43:23.180Z,5.65
2018-05-26T06:45:50.801Z,5.35
2018-05-26T06:48:18.501Z,5.10
2018-05-26T06:50:46.190Z,4.75
2018-05-26T06:53:13.823Z,5.72
2018-05-26T06:55:41.466Z,4.57
2018-05-26T06:58:09.088Z,4.93
2018-05-26T07:00:36.794Z,5.57
2018-05-26T07:03:04.636Z,5.10
2018-05-26T07:05:32.304Z,5.65
2018-05-26T07:07:59.945Z,4.85
2018-05-26T07:10:27.639Z,5.32
2018-05-26T07:12:55.256Z,5.62
2018-05-26T07:15:22.964Z,6.18
2018-05-26T07:17:50.627Z,5.40
2018-05-26T07:20:18.279Z,5.35
2018-05-26T07:22:45.927Z,4.82
2018-05-26T07:25:13.671Z,6.30
2018-05-26T07:27:41.236Z,5.87
2018-05-26T07:30:08.845Z,5.25
2018-05-26T07:32:36.718Z,4.62
2018-05-26T07:35:04.411Z,6.00
2018-05-26T07:37:32.098Z,5.70
2018-05-26T07:40:00.213Z,5.50
2018-05-26T07:42:27.801Z,5.45
2018-05-26T07:44:55.432Z,5.47
2018-05-26T07:47:23.301Z,5.45
2018-05-26T07:49:50.953Z,6.10
2018-05-26T07:52:18.596Z,5.43
2018-05-26T07:54:46.457Z,5.60
2018-05-26T07:57:14.127Z,6.03
2018-05-26T08:06:25.362Z,6.20
2018-05-26T08:08:52.961Z,5.57
2018-05-26T08:11:20.559Z,5.93
2018-05-26T08:13:48.738Z,6.60
2018-05-26T08:16:16.320Z,5.80
2018-05-26T08:18:43.978Z,5.62
2018-05-26T08:21:12.022Z,5.85
2018-05-26T08:23:39.665Z,5.40
2018-05-26T08:26:07.349Z,5.68
2018-05-26T08:28:35.026Z,5.43
2018-05-26T08:31:02.665Z,5.65
2018-05-26T08:33:30.304Z,6.00
2018-05-26T08:35:58.305Z,5.47
2018-05-26T08:38:25.890Z,5.72
2018-05-26T08:40:53.484Z,5.68
2018-05-26T08:43:21.202Z,5.22
2018-05-26T08:45:48.793Z,4.55
2018-05-26T08:48:16.488Z,4.72
2018-05-26T08:50:44.347Z,5.55
2018-05-26T08:53:12.016Z,5.30
2018-05-26T08:55:39.718Z,5.45
2018-05-26T08:58:07.500Z,5.15
2018-05-26T09:00:35.191Z,5.05
2018-05-26T09:03:02.852Z,5.72
2018-05-26T09:05:30.537Z,5.60
2018-05-26T09:07:58.154Z,5.32
2018-05-26T09:10:25.817Z,5.55
2018-05-26T09:12:53.543Z,5.60
2018-05-26T09:15:21.126Z,5.25
2018-05-26T09:17:48.812Z,5.90
2018-05-26T09:20:16.658Z,5.70
2018-05-26T09:22:44.295Z,4.95
2018-05-26T09:25:12.149Z,5.28
2018-05-26T09:27:39.903Z,5.07
2018-05-26T09:30:07.502Z,5.28
2018-05-26T09:32:35.199Z,5.50
2018-05-26T09:35:02.871Z,5.53
2018-05-26T09:37:30.615Z,5.37
2018-05-26T09:39:58.371Z,5.57
2018-05-26T09:42:26.229Z,5.95
2018-05-26T09:44:53.868Z,6.18
2018-05-26T09:47:21.501Z,4.75
2018-05-26T09:49:49.703Z,5.28
2018-05-26T09:52:17.358Z,5.40
2018-05-26T09:54:44.999Z,5.80
2018-05-26T09:57:13.290Z,5.60
2018-05-26T09:59:40.885Z,5.25
2018-05-26T10:02:08.556Z,5.12
2018-05-26T10:04:36.217Z,5.60
2018-05-26T10:07:03.833Z,4.87
2018-05-26T10:09:31.510Z,5.40
2018-05-26T10:11:59.181Z,5.28
2018-05-26T10:14:26.824Z,5.03
2018-05-26T10:16:54.450Z,5.03
2018-05-26T10:19:22.137Z,5.32
2018-05-26T10:21:49.759Z,5.72
2018-05-26T10:24:18.083Z,4.93
2018-05-26T10:26:46.534Z,5.72
2018-05-26T10:29:14.247Z,6.37
2018-05-26T10:31:41.832Z,7.28
2018-05-26T10:34:09.774Z,8.60
2018-05-26T10:36:37.432Z,13.03
2018-05-26T10:39:05.060Z,8.63
2018-05-26T10:41:32.883Z,10.57
2018-05-26T10:44:00.552Z,9.93
2018-05-26T10:46:29.198Z,8.80
2018-05-26T10:48:56.952Z,8.83
2018-05-26T10:51:24.559Z,8.00
2018-05-26T10:53:52.180Z,7.80
2018-05-26T10:56:19.892Z,7.93
2018-05-26T10:58:47.571Z,12.67
2018-05-26T11:01:15.273Z,8.67
2018-05-26T11:03:43.049Z,7.20
2018-05-26T11:06:10.708Z,7.67
2018-05-26T11:08:38.417Z,6.00
2018-05-26T11:11:06.089Z,10.97
2018-05-26T11:13:33.683Z,8.20
2018-05-26T11:16:01.397Z,5.87
2018-05-26T11:18:29.070Z,6.73
2018-05-26T11:20:56.665Z,6.27
2018-05-26T11:23:24.364Z,6.30
2018-05-26T11:25:52.100Z,6.70
2018-05-26T11:28:19.851Z,7.78
2018-05-26T11:30:47.491Z,6.93
2018-05-26T11:33:15.218Z,6.20
2018-05-26T11:35:42.841Z,7.00
2018-05-26T11:38:10.480Z,7.33
2018-05-26T11:40:38.168Z,7.37
2018-05-26T11:43:05.819Z,6.20
2018-05-26T11:45:33.445Z,6.80
2018-05-26T11:48:01.321Z,7.80
2018-05-26T11:50:28.993Z,7.22
2018-05-26T11:52:56.653Z,6.50
2018-05-26T11:55:24.328Z,7.57
2018-05-26T11:57:51.945Z,8.68
2018-05-26T12:00:19.696Z,7.63
2018-05-26T12:02:47.725Z,8.17
2018-05-26T12:05:15.348Z,6.80
2018-05-26T12:07:43.028Z,6.47
2018-05-26T12:10:10.913Z,6.30
2018-05-26T12:12:38.549Z,7.00
2018-05-26T12:15:06.254Z,6.67
2018-05-26T12:17:34.580Z,6.80
2018-05-26T12:20:02.160Z,7.07
2018-05-26T12:22:29.776Z,6.68
2018-05-26T12:24:57.959Z,10.63
2018-05-26T12:27:25.561Z,6.80
2018-05-26T12:29:53.131Z,7.03
2018-05-26T12:32:20.869Z,6.53
2018-05-26T12:34:48.439Z,6.28
2018-05-26T12:37:16.112Z,5.43
2018-05-26T12:39:43.886Z,6.40
2018-05-26T12:42:11.472Z,5.43
2018-05-26T12:44:39.138Z,5.63
2018-05-26T12:47:06.829Z,5.70
2018-05-26T12:49:34.431Z,5.60
2018-05-26T12:52:02.093Z,5.87
2018-05-26T12:54:29.803Z,5.90
2018-05-26T12:56:57.392Z,5.85
2018-05-26T12:59:25.073Z,5.60
2018-05-26T13:01:52.808Z,5.65
2018-05-26T13:04:20.394Z,5.40
2018-05-26T13:06:48.064Z,6.07
2018-05-26T13:09:15.760Z,5.25
2018-05-26T13:11:43.456Z,4.97
2018-05-26T13:14:12.113Z,5.00
2018-05-26T13:16:39.931Z,5.10
2018-05-26T13:19:07.552Z,5.57
2018-05-26T13:21:35.253Z,4.57
2018-05-26T13:24:03.268Z,4.78
2018-05-26T13:26:30.956Z,4.90
2018-05-26T13:28:58.647Z,5.03
2018-05-26T13:31:26.324Z,4.65
2018-05-26T13:33:53.963Z,4.50
2018-05-26T13:36:21.600Z,4.45
2018-05-26T13:38:49.290Z,4.47
2018-05-26T13:41:16.967Z,4.15
2018-05-26T13:43:44.581Z,4.10
2018-05-26T13:46:12.424Z,4.85
2018-05-26T13:48:40.082Z,4.53
2018-05-26T13:51:07.796Z,4.20
2018-05-26T13:53:35.541Z,4.80
2018-05-26T13:56:03.157Z,3.90
2018-05-26T13:58:30.732Z,5.05
2018-05-26T14:00:58.412Z,3.78
2018-05-26T14:03:26.061Z,4.53
2018-05-26T14:05:53.705Z,4.90
2018-05-26T14:08:21.567Z,4.10
2018-05-26T14:10:49.291Z,5.35
2018-05-26T14:13:16.876Z,4.50
2018-05-26T14:15:44.610Z,4.53
2018-05-26T14:18:12.232Z,4.50
2018-05-26T14:20:39.889Z,4.72
2018-05-26T14:23:08.036Z,4.68
2018-05-26T14:25:35.648Z,4.85
2018-05-26T14:28:03.337Z,4.72
2018-05-26T14:30:30.987Z,4.28
2018-05-26T14:32:58.580Z,6.20
2018-05-26T14:35:26.270Z,4.25
2018-05-26T14:37:53.949Z,4.37
2018-05-26T14:40:21.567Z,4.47
2018-05-26T14:42:49.211Z,4.68
2018-05-26T14:45:16.929Z,4.85
2018-05-26T14:47:44.573Z,5.05
2018-05-26T14:50:12.165Z,4.75
2018-05-26T14:52:40.055Z,4.75
2018-05-26T14:55:07.692Z,5.30
2018-05-26T14:57:35.408Z,4.18
2018-05-26T15:00:03.168Z,4.50
2018-05-26T15:02:30.904Z,4.45
2018-05-26T15:04:58.570Z,4.62
2018-05-26T15:07:26.273Z,4.32
2018-05-26T15:09:53.848Z,4.10
2018-05-26T15:12:21.539Z,4.30
2018-05-26T15:14:49.373Z,4.75
2018-05-26T15:17:17.034Z,4.65
2018-05-26T15:19:44.725Z,4.80
2018-05-26T15:22:12.372Z,4.53
2018-05-26T15:24:40.184Z,4.78
2018-05-26T15:27:07.905Z,4.15
2018-05-26T15:29:35.596Z,4.30
2018-05-26T15:32:03.209Z,4.70
2018-05-26T15:34:30.838Z,4.85
2018-05-26T15:36:58.720Z,4.43
2018-05-26T15:39:26.406Z,4.50
2018-05-26T15:41:54.062Z,4.40
2018-05-26T15:44:21.923Z,5.15
2018-05-26T15:46:49.504Z,5.07
2018-05-26T15:49:17.186Z,4.72
2018-05-26T15:51:45.291Z,4.55
2018-05-26T15:54:13.140Z,4.53
2018-05-26T15:56:40.870Z,5.28
2018-05-26T15:59:08.624Z,6.00
2018-05-26T16:01:36.192Z,5.18
2018-05-26T16:04:03.844Z,4.80
2018-05-26T16:06:31.680Z,4.57
2018-05-26T16:08:59.368Z,5.00
2018-05-26T16:11:27.008Z,4.37
2018-05-26T16:13:54.722Z,5.00
2018-05-26T16:16:22.312Z,5.82
2018-05-26T16:18:49.978Z,4.68
2018-05-26T16:21:17.681Z,5.85
2018-05-26T16:23:45.293Z,5.62
2018-05-26T16:26:12.965Z,4.60
2018-05-26T16:28:40.750Z,5.22
2018-05-26T16:31:08.345Z,5.55
2018-05-26T16:33:35.937Z,5.28
2018-05-26T16:36:03.655Z,5.30
2018-05-26T16:38:31.248Z,5.12
2018-05-26T16:40:58.921Z,6.35
2018-05-26T16:43:26.741Z,9.32
2018-05-26T16:45:54.460Z,8.30
2018-05-26T16:48:22.081Z,7.82
2018-05-26T16:50:50.229Z,8.40
2018-05-26T16:53:17.880Z,9.90
2018-05-26T16:55:45.477Z,10.18
2018-05-26T16:58:13.194Z,11.32
2018-05-26T17:00:40.843Z,9.75
2018-05-26T17:03:08.487Z,12.95
2018-05-26T17:05:36.332Z,7.75
2018-05-26T17:08:04.019Z,6.93
2018-05-26T17:10:31.595Z,5.87
2018-05-26T17:12:59.345Z,5.60
2018-05-26T17:15:26.951Z,4.53
2018-05-26T17:17:54.628Z,3.85
2018-05-26T17:20:22.835Z,4.18
2018-05-26T17:22:50.560Z,4.75
2018-05-26T17:25:18.193Z,4.97
2018-05-26T17:27:46.303Z,5.00
2018-05-26T17:30:13.952Z,5.47
2018-05-26T17:32:41.571Z,5.28
2018-05-26T17:35:09.408Z,4.50
2018-05-26T17:37:37.114Z,5.20
2018-05-26T17:40:04.828Z,5.63
2018-05-26T17:42:32.519Z,5.47
2018-05-26T17:45:00.091Z,5.80
2018-05-26T17:47:27.748Z,5.93
2018-05-26T17:49:55.498Z,5.57
2018-05-26T17:52:23.059Z,5.50
2018-05-26T17:54:50.737Z,5.83
2018-05-26T17:57:18.436Z,5.60
2018-05-26T17:59:46.098Z,7.63
2018-05-26T18:02:13.701Z,9.63
2018-05-26T18:04:41.568Z,9.57
2018-05-26T18:07:09.235Z,21.37
2018-05-26T18:09:36.891Z,13.17
2018-05-26T18:12:04.589Z,7.43
2018-05-26T18:14:32.188Z,8.07
2018-05-26T18:16:59.862Z,8.33
2018-05-26T18:19:27.754Z,7.50
2018-05-26T18:21:55.396Z,9.47
2018-05-26T18:24:23.052Z,7.50
2018-05-26T18:26:50.866Z,6.00
2018-05-26T18:29:18.592Z,5.50
2018-05-26T18:31:46.178Z,7.07
2018-05-26T18:34:14.366Z,6.87
2018-05-26T18:36:41.975Z,7.07
2018-05-26T18:39:09.608Z,6.63
2018-05-26T18:41:37.315Z,5.90
2018-05-26T18:44:04.960Z,5.70
2018-05-26T18:46:32.629Z,5.80
2018-05-26T18:49:00.756Z,6.60
2018-05-26T18:51:28.351Z,5.47
2018-05-26T18:53:55.998Z,6.50
2018-05-26T18:56:23.828Z,5.33
2018-05-26T18:58:51.540Z,5.30
2018-05-26T19:01:19.202Z,5.20
2018-05-26T19:03:46.859Z,5.47
2018-05-26T19:06:14.497Z,5.10
2018-05-26T19:08:42.153Z,5.70
2018-05-26T19:11:09.836Z,6.03
2018-05-26T19:13:37.473Z,5.90
2018-05-26T19:16:05.103Z,5.93
2018-05-26T19:18:32.830Z,6.30
2018-05-26T19:21:00.462Z,6.03
2018-05-26T19:23:28.088Z,6.80
2018-05-26T19:25:55.799Z,6.90
2018-05-26T19:28:23.393Z,6.73
2018-05-26T19:30:51.070Z,7.03
2018-05-26T19:33:19.065Z,7.60
2018-05-26T19:35:46.654Z,7.43
2018-05-26T19:38:14.251Z,8.67
2018-05-26T19:40:41.889Z,6.47
2018-05-26T19:43:09.507Z,8.10
2018-05-26T19:45:37.153Z,10.90
2018-05-26T19:48:05.133Z,7.37
2018-05-26T19:50:32.787Z,6.73
2018-05-26T19:53:00.401Z,5.83
2018-05-26T19:55:28.131Z,8.40
2018-05-26T19:57:55.773Z,7.53
2018-05-26T20:00:23.420Z,6.30
2018-05-26T20:02:51.283Z,6.33
2018-05-26T20:05:18.947Z,7.30
2018-05-26T20:07:46.661Z,7.07
2018-05-26T20:10:14.617Z,7.40
2018-05-26T20:12:42.208Z,7.00
2018-05-26T20:15:09.829Z,7.43
2018-05-26T20:17:37.709Z,10.47
2018-05-26T20:20:05.428Z,8.90
2018-05-26T20:22:33.055Z,8.17
2018-05-26T20:25:01.253Z,7.90
2018-05-26T20:27:28.844Z,8.50
2018-05-26T20:29:56.559Z,8.63
2018-05-26T20:32:24.570Z,8.17
2018-05-26T20:34:52.246Z,6.90
2018-05-26T20:37:20.058Z,8.37
2018-05-26T20:39:48.114Z,8.20
2018-05-26T20:42:15.716Z,9.00
2018-05-26T20:44:43.299Z,8.30
2018-05-26T20:47:11.182Z,8.47
2018-05-26T20:49:38.828Z,9.23
2018-05-26T20:52:06.500Z,9.70
2018-05-26T20:54:34.222Z,8.80
2018-05-26T20:57:01.819Z,9.00
2018-05-26T20:59:29.510Z,8.63
2018-05-26T21:01:57.310Z,8.93
2018-05-26T21:04:31.045Z,9.20
2018-05-26T21:06:58.654Z,9.40
2018-05-26T21:09:26.272Z,9.67
2018-05-26T21:11:53.931Z,9.17
2018-05-26T21:14:21.768Z,8.80
2018-05-26T21:16:49.441Z,9.23
2018-05-26T21:19:17.137Z,8.47
2018-05-26T21:21:45.273Z,9.60
2018-05-26T21:24:12.859Z,9.03
2018-05-26T21:26:40.489Z,8.50
2018-05-26T21:29:08.498Z,8.90
2018-05-26T21:31:36.076Z,7.57
2018-05-26T21:34:03.690Z,7.37
2018-05-26T21:36:31.836Z,7.53
2018-05-26T21:38:59.434Z,9.37
2018-05-26T21:41:27.119Z,10.53
2018-05-26T21:43:54.755Z,11.97
2018-05-26T21:46:22.387Z,13.30
2018-05-26T21:48:50.075Z,13.53
2018-05-26T21:51:17.743Z,10.67
2018-05-26T21:53:45.400Z,11.23
2018-05-26T21:56:13.015Z,10.73
2018-05-26T21:58:40.719Z,11.37
2018-05-26T22:01:08.301Z,11.87
2018-05-26T22:03:35.984Z,12.80
2018-05-26T22:06:03.763Z,12.97
2018-05-26T22:08:31.320Z,13.43
2018-05-26T22:10:58.996Z,13.10
2018-05-26T22:13:27.042Z,13.13
2018-05-26T22:15:54.746Z,13.13
2018-05-26T22:18:22.440Z,12.57
2018-05-26T22:20:50.097Z,14.23
2018-05-26T22:23:17.706Z,13.93
2018-05-26T22:25:45.383Z,13.37
2018-05-26T22:28:13.067Z,12.77
2018-05-26T22:30:40.663Z,14.97
2018-05-26T22:33:08.328Z,13.07
2018-05-26T22:35:36.310Z,12.70
2018-05-26T22:38:04.078Z,12.90
2018-05-26T22:40:31.731Z,11.50
2018-05-26T22:42:59.412Z,11.63
2018-05-26T22:45:27.050Z,10.67
2018-05-26T22:47:54.716Z,10.87
2018-05-26T22:50:22.548Z,10.93
2018-05-26T22:52:50.192Z,11.13
2018-05-26T22:55:17.906Z,10.77
2018-05-26T22:57:45.703Z,11.13
2018-05-26T23:00:13.477Z,10.77
2018-05-26T23:02:41.074Z,10.07
2018-05-26T23:05:08.907Z,10.33
2018-05-26T23:07:36.549Z,10.67
2018-05-26T23:10:04.338Z,11.07
2018-05-26T23:12:31.972Z,11.10
2018-05-26T23:14:59.612Z,10.57
2018-05-26T23:17:27.200Z,11.07
2018-05-26T23:19:55.418Z,11.77
2018-05-26T23:22:23.160Z,11.50
2018-05-26T23:24:50.800Z,13.20
2018-05-26T23:27:18.519Z,13.00
2018-05-26T23:29:46.126Z,13.80
2018-05-26T23:32:13.785Z,14.97
2018-05-26T23:34:41.493Z,15.30
2018-05-26T23:37:09.114Z,15.90
2018-05-26T23:39:36.703Z,18.60
2018-05-26T23:42:04.383Z,19.40
2018-05-26T23:44:32.212Z,20.10
2018-05-26T23:46:59.870Z,19.13
2018-05-26T23:49:27.880Z,18.07
2018-05-26T23:51:55.579Z,18.67
2018-05-26T23:54:23.269Z,19.00
2018-05-26T23:56:50.955Z,19.57
2018-05-26T23:59:18.557Z,18.57
